createdAt,value
2017-09-18T00:01:08.931Z,9.00
2017-09-18T00:03:36.453Z,9.00
2017-09-18T00:06:03.937Z,8.90
2017-09-18T00:08:31.443Z,8.90
2017-09-18T00:10:59.348Z,8.80
2017-09-18T00:13:26.862Z,8.80
2017-09-18T00:15:54.393Z,8.70
2017-09-18T00:18:22.277Z,8.70
2017-09-18T00:20:49.801Z,8.70
2017-09-18T00:23:17.295Z,8.60
2017-09-18T00:25:44.824Z,8.60
2017-09-18T00:28:12.331Z,8.60
2017-09-18T00:30:39.846Z,8.60
2017-09-18T00:33:07.338Z,8.60
2017-09-18T00:35:34.842Z,8.60
2017-09-18T00:38:02.376Z,8.50
2017-09-18T00:40:30.349Z,8.40
2017-09-18T00:42:57.872Z,8.50
2017-09-18T00:45:25.371Z,8.40
2017-09-18T00:47:52.899Z,8.30
2017-09-18T00:50:20.394Z,8.20
2017-09-18T00:52:47.900Z,8.20
2017-09-18T00:55:15.418Z,8.10
2017-09-18T00:57:43.312Z,8.10
2017-09-18T01:00:10.826Z,8.10
2017-09-18T01:02:38.367Z,8.10
2017-09-18T01:05:05.891Z,8.00
2017-09-18T01:07:33.532Z,7.90
2017-09-18T01:10:01.091Z,7.90
2017-09-18T01:12:28.635Z,7.80
2017-09-18T01:14:56.187Z,7.80
2017-09-18T01:17:23.730Z,7.80
2017-09-18T01:19:51.239Z,7.80
2017-09-18T01:22:19.158Z,7.60
2017-09-18T01:24:47.063Z,7.70
2017-09-18T01:27:14.589Z,7.60
2017-09-18T01:29:42.097Z,7.50
2017-09-18T01:32:09.599Z,7.50
2017-09-18T01:34:37.110Z,7.50
2017-09-18T01:37:04.604Z,7.50
2017-09-18T01:39:32.114Z,7.50
2017-09-18T01:42:00.002Z,7.50
2017-09-18T01:44:27.512Z,7.50
2017-09-18T01:46:55.407Z,7.40
2017-09-18T01:49:23.327Z,7.40
2017-09-18T01:51:50.829Z,7.40
2017-09-18T01:54:18.332Z,7.40
2017-09-18T01:56:45.854Z,7.40
2017-09-18T01:59:13.748Z,7.40
2017-09-18T02:01:41.279Z,7.40
2017-09-18T02:04:08.821Z,7.40
2017-09-18T02:06:36.354Z,7.40
2017-09-18T02:09:03.871Z,7.40
2017-09-18T02:11:31.795Z,7.40
2017-09-18T02:13:59.294Z,7.40
2017-09-18T02:16:26.797Z,7.30
2017-09-18T02:18:54.309Z,7.30
2017-09-18T02:21:21.816Z,7.40
2017-09-18T02:23:49.368Z,7.30
2017-09-18T02:26:16.867Z,7.40
2017-09-18T02:28:44.394Z,7.40
2017-09-18T02:31:11.892Z,7.40
2017-09-18T02:33:39.412Z,7.40
2017-09-18T02:36:06.909Z,7.40
2017-09-18T02:38:34.419Z,7.40
2017-09-18T02:41:01.947Z,7.40
2017-09-18T02:43:29.459Z,7.40
2017-09-18T02:45:57.205Z,7.40
2017-09-18T02:48:24.711Z,7.40
2017-09-18T02:50:52.262Z,7.40
2017-09-18T02:53:19.782Z,7.30
2017-09-18T02:55:47.290Z,7.30
2017-09-18T02:58:14.807Z,7.30
2017-09-18T03:00:42.314Z,7.20
2017-09-18T03:03:09.849Z,7.20
2017-09-18T03:05:37.349Z,7.20
2017-09-18T03:08:04.872Z,7.20
2017-09-18T03:10:33.312Z,7.20
2017-09-18T03:13:00.823Z,7.30
2017-09-18T03:15:28.337Z,7.30
2017-09-18T03:17:55.842Z,7.30
2017-09-18T03:20:23.358Z,7.30
2017-09-18T03:22:50.849Z,7.40
2017-09-18T03:25:18.362Z,7.40
2017-09-18T03:27:46.258Z,7.50
2017-09-18T03:30:14.553Z,7.50
2017-09-18T03:32:42.060Z,7.50
2017-09-18T03:35:09.572Z,7.60
2017-09-18T03:37:37.120Z,7.60
2017-09-18T03:40:04.649Z,7.70
2017-09-18T03:42:32.188Z,7.70
2017-09-18T03:45:00.084Z,7.80
2017-09-18T03:47:27.610Z,7.80
2017-09-18T03:49:55.129Z,7.80
2017-09-18T03:52:22.691Z,7.80
2017-09-18T03:54:50.206Z,7.80
2017-09-18T03:57:18.119Z,7.90
2017-09-18T03:59:45.643Z,7.90
2017-09-18T04:02:13.174Z,7.90
2017-09-18T04:04:40.691Z,7.90
2017-09-18T04:07:08.640Z,8.00
2017-09-18T04:09:36.594Z,8.00
2017-09-18T04:12:04.120Z,8.00
2017-09-18T04:14:31.658Z,8.10
2017-09-18T04:16:59.185Z,8.10
2017-09-18T04:19:27.690Z,8.10
2017-09-18T04:21:55.224Z,8.20
2017-09-18T04:24:22.742Z,8.20
2017-09-18T04:26:50.330Z,8.20
2017-09-18T04:29:18.286Z,8.30
2017-09-18T04:31:45.836Z,8.30
2017-09-18T04:34:13.811Z,8.20
2017-09-18T04:36:41.371Z,8.20
2017-09-18T04:39:08.910Z,8.20
2017-09-18T04:41:36.466Z,8.20
2017-09-18T04:44:03.977Z,8.20
2017-09-18T04:46:31.495Z,8.20
2017-09-18T04:48:59.060Z,8.20
2017-09-18T04:51:26.609Z,8.20
2017-09-18T04:53:54.157Z,8.20
2017-09-18T04:56:21.682Z,8.10
2017-09-18T04:58:49.608Z,8.10
2017-09-18T05:01:17.143Z,8.10
2017-09-18T05:03:45.686Z,8.10
2017-09-18T05:06:13.194Z,8.00
2017-09-18T05:08:42.248Z,8.00
2017-09-18T05:11:09.799Z,8.00
2017-09-18T05:13:37.363Z,8.00
2017-09-18T05:16:05.318Z,8.00
2017-09-18T05:18:33.270Z,8.10
2017-09-18T05:21:00.880Z,8.10
2017-09-18T05:23:28.480Z,8.10
2017-09-18T05:25:56.061Z,8.00
2017-09-18T05:28:23.629Z,8.00
2017-09-18T05:30:51.174Z,8.10
2017-09-18T05:33:19.203Z,8.10
2017-09-18T05:35:46.808Z,8.10
2017-09-18T05:38:14.402Z,8.10
2017-09-18T05:40:41.980Z,8.00
2017-09-18T05:43:09.551Z,8.10
2017-09-18T05:45:37.153Z,8.10
2017-09-18T05:48:04.788Z,8.10
2017-09-18T05:50:32.827Z,8.10
2017-09-18T05:53:00.389Z,8.20
2017-09-18T05:55:28.061Z,8.20
2017-09-18T05:57:57.232Z,8.30
2017-09-18T06:00:25.241Z,8.30
2017-09-18T06:02:52.801Z,8.30
2017-09-18T06:05:20.393Z,8.30
2017-09-18T06:07:47.926Z,8.40
2017-09-18T06:10:15.469Z,8.50
2017-09-18T06:12:43.427Z,8.60
2017-09-18T06:15:11.322Z,8.60
2017-09-18T06:17:43.101Z,8.60
2017-09-18T06:20:10.701Z,8.70
2017-09-18T06:22:38.253Z,8.80
2017-09-18T06:25:05.865Z,8.80
2017-09-18T06:27:33.416Z,8.80
2017-09-18T06:30:00.975Z,8.90
2017-09-18T06:32:28.535Z,8.90
2017-09-18T06:34:56.105Z,9.00
2017-09-18T06:37:23.681Z,9.00
2017-09-18T06:39:51.614Z,9.10
2017-09-18T06:42:19.180Z,9.10
2017-09-18T06:44:47.143Z,9.20
2017-09-18T06:47:14.722Z,9.20
2017-09-18T06:49:43.621Z,9.20
2017-09-18T06:52:11.221Z,9.30
2017-09-18T06:54:38.795Z,9.40
2017-09-18T06:57:06.372Z,9.40
2017-09-18T06:59:34.435Z,9.40
2017-09-18T07:02:02.383Z,9.50
2017-09-18T07:04:29.874Z,9.60
2017-09-18T07:06:57.379Z,9.60
2017-09-18T07:09:25.410Z,9.70
2017-09-18T07:11:53.724Z,9.70
2017-09-18T07:14:21.292Z,9.80
2017-09-18T07:16:48.822Z,9.80
2017-09-18T07:19:16.327Z,9.80
2017-09-18T07:21:44.291Z,9.90
2017-09-18T07:24:11.863Z,9.90
2017-09-18T07:26:39.452Z,10.00
2017-09-18T07:29:07.037Z,10.00
2017-09-18T07:31:34.637Z,10.10
2017-09-18T07:34:02.251Z,10.20
2017-09-18T07:36:29.835Z,10.30
2017-09-18T07:38:57.445Z,10.40
2017-09-18T07:41:25.045Z,10.40
2017-09-18T07:43:53.051Z,10.60
2017-09-18T07:46:20.663Z,10.60
2017-09-18T07:48:48.257Z,10.60
2017-09-18T07:51:15.876Z,10.60
2017-09-18T07:53:43.444Z,10.70
2017-09-18T07:56:11.053Z,10.70
2017-09-18T07:58:38.665Z,10.80
2017-09-18T08:01:06.216Z,10.90
2017-09-18T08:03:33.812Z,10.90
2017-09-18T08:06:01.487Z,11.00
2017-09-18T08:08:29.138Z,11.10
2017-09-18T08:10:57.196Z,11.30
2017-09-18T08:13:24.814Z,11.20
2017-09-18T08:15:52.416Z,11.30
2017-09-18T08:18:31.111Z,11.30
2017-09-18T08:23:43.297Z,11.30
2017-09-18T08:26:12.994Z,11.30
2017-09-18T08:28:40.554Z,11.30
2017-09-18T08:31:08.126Z,11.30
2017-09-18T08:33:36.758Z,11.40
2017-09-18T08:36:04.997Z,11.40
2017-09-18T08:38:37.810Z,11.50
2017-09-18T08:41:10.977Z,11.50
2017-09-18T08:46:34.689Z,11.50
2017-09-18T08:49:03.803Z,11.50
2017-09-18T08:51:31.528Z,11.50
2017-09-18T08:53:59.257Z,11.60
2017-09-18T08:59:09.222Z,11.70
2017-09-18T09:01:37.009Z,11.70
2017-09-18T09:04:07.620Z,11.70
2017-09-18T09:06:37.007Z,11.80
2017-09-18T09:09:07.986Z,11.80
2017-09-18T09:11:39.240Z,11.80
2017-09-18T09:14:09.094Z,11.80
2017-09-18T09:16:36.724Z,11.90
2017-09-18T09:19:05.627Z,12.00
2017-09-18T09:21:33.369Z,12.10
2017-09-18T09:24:05.426Z,12.20
2017-09-18T09:26:40.046Z,12.20
2017-09-18T09:29:15.525Z,12.40
2017-09-18T09:31:43.266Z,12.40
2017-09-18T09:34:11.087Z,12.50
2017-09-18T09:36:39.838Z,12.40
2017-09-18T09:39:07.611Z,12.40
2017-09-18T09:41:35.270Z,12.30
2017-09-18T09:44:03.058Z,12.30
2017-09-18T09:46:35.966Z,12.30
2017-09-18T09:49:04.947Z,12.30
2017-09-18T09:51:33.473Z,12.30
2017-09-18T09:54:03.747Z,12.40
2017-09-18T09:56:32.960Z,12.50
2017-09-18T09:59:02.430Z,12.60
2017-09-18T10:01:30.033Z,12.50
2017-09-18T10:03:58.556Z,12.60
2017-09-18T10:06:27.610Z,12.60
2017-09-18T10:08:57.658Z,12.60
2017-09-18T10:11:28.850Z,12.70
2017-09-18T10:14:10.980Z,12.70
2017-09-18T10:16:46.583Z,12.80
2017-09-18T10:19:21.703Z,12.70
2017-09-18T10:21:49.417Z,12.70
2017-09-18T10:24:16.984Z,12.60
2017-09-18T10:26:44.547Z,12.50
2017-09-18T10:29:12.094Z,12.40
2017-09-18T10:31:42.638Z,12.30
2017-09-18T10:34:10.591Z,12.20
2017-09-18T10:36:38.154Z,12.20
2017-09-18T10:39:05.704Z,12.10
2017-09-18T10:41:33.260Z,11.90
2017-09-18T10:44:00.832Z,11.80
2017-09-18T10:46:28.480Z,11.70
2017-09-18T10:48:56.571Z,11.60
2017-09-18T10:51:24.621Z,11.40
2017-09-18T10:53:52.583Z,11.40
2017-09-18T10:56:20.660Z,11.40
2017-09-18T10:58:48.287Z,11.40
2017-09-18T11:01:16.268Z,11.40
2017-09-18T11:03:43.834Z,11.40
2017-09-18T11:06:11.431Z,11.40
2017-09-18T11:08:39.072Z,11.50
2017-09-18T11:11:06.627Z,11.50
2017-09-18T11:13:34.596Z,11.50
2017-09-18T11:16:02.552Z,11.50
2017-09-18T11:18:30.153Z,11.50
2017-09-18T11:20:58.482Z,11.50
2017-09-18T11:23:26.105Z,11.50
2017-09-18T11:25:53.672Z,11.50
2017-09-18T11:28:22.135Z,11.50
2017-09-18T11:30:49.751Z,11.50
2017-09-18T11:33:17.711Z,11.60
2017-09-18T11:35:45.334Z,11.60
2017-09-18T11:38:12.954Z,11.60
2017-09-18T11:40:41.128Z,11.70
2017-09-18T11:43:09.832Z,11.70
2017-09-18T11:45:37.464Z,11.70
2017-09-18T11:48:05.040Z,11.70
2017-09-18T11:50:32.757Z,11.70
2017-09-18T11:53:00.780Z,12.20
2017-09-18T11:55:28.373Z,12.20
2017-09-18T11:58:14.431Z,12.40
2017-09-18T12:00:42.431Z,12.80
2017-09-18T12:03:16.932Z,12.80
2017-09-18T12:05:44.553Z,12.90
2017-09-18T12:08:12.204Z,13.00
2017-09-18T12:10:44.045Z,13.20
2017-09-18T12:13:11.702Z,13.20
2017-09-18T12:15:40.119Z,13.20
2017-09-18T12:18:07.829Z,13.20
2017-09-18T12:20:42.894Z,13.10
2017-09-18T12:23:10.580Z,13.00
2017-09-18T12:25:45.605Z,12.90
2017-09-18T12:28:13.301Z,12.80
2017-09-18T12:30:48.303Z,12.70
2017-09-18T12:33:16.012Z,12.60
2017-09-18T12:35:43.687Z,12.50
2017-09-18T12:38:11.342Z,12.40
2017-09-18T12:40:40.387Z,12.40
2017-09-18T12:43:08.020Z,12.40
2017-09-18T12:45:36.501Z,12.30
2017-09-18T12:48:11.565Z,12.30
2017-09-18T12:50:52.139Z,12.30
2017-09-18T12:53:20.174Z,12.60
2017-09-18T12:55:48.662Z,12.60
2017-09-18T12:58:16.630Z,12.90
2017-09-18T13:00:44.204Z,12.90
2017-09-18T13:03:11.851Z,13.10
2017-09-18T13:05:39.481Z,13.30
2017-09-18T13:08:07.075Z,13.30
2017-09-18T13:10:35.915Z,13.40
2017-09-18T13:13:03.553Z,13.50
2017-09-18T13:18:16.393Z,13.60
2017-09-18T13:24:12.048Z,13.60
2017-09-18T13:26:40.512Z,13.70
2017-09-18T13:29:08.046Z,13.70
2017-09-18T13:31:35.550Z,13.70
2017-09-18T13:34:03.487Z,13.60
2017-09-18T13:36:30.995Z,13.70
2017-09-18T13:38:58.513Z,13.60
2017-09-18T13:41:26.045Z,13.70
2017-09-18T13:43:53.552Z,13.70
2017-09-18T13:46:21.160Z,13.70
2017-09-18T13:48:48.676Z,13.60
2017-09-18T13:51:16.602Z,13.40
2017-09-18T13:53:44.119Z,13.40
2017-09-18T13:56:11.656Z,13.20
2017-09-18T13:58:40.595Z,13.00
2017-09-18T14:01:08.141Z,13.00
2017-09-18T14:03:35.690Z,13.00
2017-09-18T14:06:03.215Z,13.00
2017-09-18T14:08:30.762Z,13.00
2017-09-18T14:10:58.816Z,13.00
2017-09-18T14:13:26.815Z,13.10
2017-09-18T14:15:54.797Z,12.90
2017-09-18T14:18:22.391Z,12.90
2017-09-18T14:20:49.915Z,12.90
2017-09-18T14:23:17.459Z,12.80
2017-09-18T14:25:45.001Z,12.80
2017-09-18T14:28:12.957Z,12.80
2017-09-18T14:30:41.900Z,12.80
2017-09-18T14:33:10.731Z,12.80
2017-09-18T14:35:39.809Z,12.80
2017-09-18T14:38:07.329Z,12.70
2017-09-18T14:40:34.873Z,12.70
2017-09-18T14:43:02.396Z,12.60
2017-09-18T14:45:29.931Z,12.60
2017-09-18T14:47:57.455Z,12.60
2017-09-18T14:50:25.021Z,12.50
2017-09-18T14:52:52.941Z,12.50
2017-09-18T14:55:20.457Z,12.50
2017-09-18T14:57:47.990Z,12.50
2017-09-18T15:00:15.516Z,12.50
2017-09-18T15:02:43.452Z,12.50
2017-09-18T15:05:10.976Z,12.50
2017-09-18T15:07:38.515Z,12.50
2017-09-18T15:10:06.037Z,12.50
2017-09-18T15:12:33.584Z,12.60
2017-09-18T15:15:01.114Z,12.60
2017-09-18T15:17:29.236Z,12.70
2017-09-18T15:19:57.667Z,12.70
2017-09-18T15:22:25.203Z,12.70
2017-09-18T15:24:52.757Z,12.70
2017-09-18T15:27:20.291Z,12.70
2017-09-18T15:29:47.832Z,12.70
2017-09-18T15:32:15.360Z,12.60
2017-09-18T15:34:42.904Z,12.60
2017-09-18T15:37:11.463Z,12.50
2017-09-18T15:39:40.154Z,12.40
2017-09-18T15:42:07.674Z,12.40
2017-09-18T15:44:35.306Z,12.40
2017-09-18T15:47:02.852Z,12.30
2017-09-18T15:49:30.367Z,12.30
2017-09-18T15:51:58.948Z,12.20
2017-09-18T15:54:26.896Z,12.20
2017-09-18T15:56:54.429Z,12.20
2017-09-18T15:59:21.977Z,12.10
2017-09-18T16:01:49.939Z,12.10
2017-09-18T16:04:17.460Z,12.10
2017-09-18T16:06:45.414Z,12.00
2017-09-18T16:09:12.939Z,12.00
2017-09-18T16:11:41.683Z,12.00
2017-09-18T16:14:10.617Z,12.00
2017-09-18T16:16:38.536Z,12.00
2017-09-18T16:19:06.128Z,12.00
2017-09-18T16:21:33.647Z,11.90
2017-09-18T16:24:01.576Z,11.40
2017-09-18T16:26:29.095Z,11.40
2017-09-18T16:28:57.374Z,11.20
2017-09-18T16:31:24.951Z,10.90
2017-09-18T16:33:52.939Z,10.80
2017-09-18T16:36:20.877Z,10.70
2017-09-18T16:38:48.477Z,10.70
2017-09-18T16:41:16.069Z,10.70
2017-09-18T16:43:43.586Z,10.70
2017-09-18T16:46:11.631Z,10.70
2017-09-18T16:48:40.311Z,10.70
2017-09-18T16:51:07.841Z,10.70
2017-09-18T16:53:35.360Z,10.70
2017-09-18T16:56:02.888Z,10.70
2017-09-18T16:58:30.463Z,10.70
2017-09-18T17:00:58.675Z,10.70
2017-09-18T17:03:26.955Z,10.70
2017-09-18T17:05:54.482Z,10.70
2017-09-18T17:08:22.073Z,10.70
2017-09-18T17:10:49.591Z,10.70
2017-09-18T17:13:17.132Z,10.70
2017-09-18T17:15:44.640Z,10.70
2017-09-18T17:18:12.176Z,10.70
2017-09-18T17:20:40.296Z,10.70
2017-09-18T17:23:07.835Z,10.70
2017-09-18T17:25:35.759Z,10.70
2017-09-18T17:28:03.713Z,10.70
2017-09-18T17:30:31.231Z,10.80
2017-09-18T17:32:58.758Z,10.70
2017-09-18T17:35:26.950Z,10.70
2017-09-18T17:37:54.908Z,10.70
2017-09-18T17:40:22.439Z,10.70
2017-09-18T17:42:49.963Z,10.70
2017-09-18T17:45:17.503Z,10.70
2017-09-18T17:47:45.028Z,10.70
2017-09-18T17:50:12.675Z,10.70
2017-09-18T17:52:41.540Z,10.60
2017-09-18T17:55:10.028Z,10.60
2017-09-18T17:57:37.576Z,10.60
2017-09-18T18:00:05.139Z,10.60
2017-09-18T18:02:32.667Z,10.60
2017-09-18T18:05:00.183Z,10.60
2017-09-18T18:07:28.725Z,10.70
2017-09-18T18:09:56.996Z,10.60
2017-09-18T18:12:24.596Z,10.60
2017-09-18T18:14:52.116Z,10.60
2017-09-18T18:17:19.671Z,10.60
2017-09-18T18:19:47.188Z,10.60
2017-09-18T18:22:14.755Z,10.50
2017-09-18T18:24:42.691Z,10.50
2017-09-18T18:27:11.627Z,10.50
2017-09-18T18:29:40.192Z,10.50
2017-09-18T18:32:08.124Z,10.50
2017-09-18T18:34:35.737Z,10.50
2017-09-18T18:37:03.269Z,10.50
2017-09-18T18:39:30.848Z,10.50
2017-09-18T18:41:59.340Z,10.40
2017-09-18T18:44:28.311Z,10.40
2017-09-18T18:46:55.833Z,10.40
2017-09-18T18:49:23.351Z,10.40
2017-09-18T18:51:51.048Z,10.40
2017-09-18T18:54:18.633Z,10.40
2017-09-18T18:56:46.185Z,10.30
2017-09-18T18:59:13.703Z,10.40
2017-09-18T19:01:41.355Z,10.40
2017-09-18T19:04:09.984Z,10.30
2017-09-18T19:06:37.594Z,10.40
2017-09-18T19:09:05.112Z,10.30
2017-09-18T19:11:33.027Z,10.30
2017-09-18T19:14:00.571Z,10.30
2017-09-18T19:16:29.345Z,10.30
2017-09-18T19:18:57.688Z,10.30
2017-09-18T19:21:25.228Z,10.30
2017-09-18T19:23:52.788Z,10.30
2017-09-18T19:26:20.708Z,10.30
2017-09-18T19:28:48.346Z,10.30
2017-09-18T19:31:15.915Z,10.30
2017-09-18T19:33:43.545Z,10.30
2017-09-18T19:36:11.481Z,10.30
2017-09-18T19:38:40.028Z,10.30
2017-09-18T19:41:07.639Z,10.30
2017-09-18T19:43:35.224Z,10.30
2017-09-18T19:46:02.820Z,10.30
2017-09-18T19:48:30.551Z,10.30
2017-09-18T19:50:59.243Z,10.30
2017-09-18T19:53:29.077Z,10.20
2017-09-18T19:55:57.042Z,10.30
2017-09-18T19:58:24.618Z,10.20
2017-09-18T20:00:52.284Z,10.20
2017-09-18T20:03:20.469Z,10.20
2017-09-18T20:05:47.987Z,10.20
2017-09-18T20:08:15.529Z,10.10
2017-09-18T20:10:43.045Z,10.20
2017-09-18T20:13:11.771Z,10.20
2017-09-18T20:15:40.331Z,10.20
2017-09-18T20:18:07.931Z,10.20
2017-09-18T20:20:35.520Z,10.20
2017-09-18T20:23:03.035Z,10.20
2017-09-18T20:25:31.175Z,10.20
2017-09-18T20:27:58.695Z,10.30
2017-09-18T20:30:27.148Z,10.30
2017-09-18T20:32:54.687Z,10.30
2017-09-18T20:35:22.277Z,10.30
2017-09-18T20:37:49.801Z,10.40
2017-09-18T20:40:17.778Z,10.40
2017-09-18T20:42:45.296Z,10.40
2017-09-18T20:45:13.252Z,10.40
2017-09-18T20:47:41.319Z,10.50
2017-09-18T20:50:08.961Z,10.50
2017-09-18T20:52:36.930Z,10.50
2017-09-18T20:55:04.470Z,10.50
2017-09-18T20:57:32.003Z,10.50
2017-09-18T20:59:59.537Z,10.50
2017-09-18T21:02:27.540Z,10.50
2017-09-18T21:04:55.068Z,10.50
2017-09-18T21:07:22.623Z,10.50
2017-09-18T21:09:50.155Z,10.50
2017-09-18T21:12:17.717Z,10.50
2017-09-18T21:14:45.636Z,10.60
2017-09-18T21:17:13.169Z,10.60
2017-09-18T21:19:41.295Z,10.60
2017-09-18T21:22:09.645Z,10.60
2017-09-18T21:24:37.296Z,10.60
2017-09-18T21:27:04.828Z,10.70
2017-09-18T21:29:32.368Z,10.70
2017-09-18T21:31:59.891Z,10.70
2017-09-18T21:34:28.480Z,10.70
2017-09-18T21:36:55.998Z,10.70
2017-09-18T21:39:23.906Z,10.70
2017-09-18T21:41:51.447Z,10.70
2017-09-18T21:44:18.971Z,10.70
2017-09-18T21:46:46.513Z,10.70
2017-09-18T21:49:14.029Z,10.70
2017-09-18T21:51:41.969Z,10.70
2017-09-18T21:54:10.565Z,10.70
2017-09-18T21:56:38.511Z,10.70
2017-09-18T21:59:06.042Z,10.80
2017-09-18T22:01:33.969Z,10.80
2017-09-18T22:04:01.908Z,10.80
2017-09-18T22:06:29.431Z,10.80
2017-09-18T22:08:58.043Z,10.80
2017-09-18T22:11:25.563Z,10.80
2017-09-18T22:13:53.547Z,10.80
2017-09-18T22:16:22.939Z,10.80
2017-09-18T22:18:50.499Z,10.80
2017-09-18T22:21:18.019Z,10.80
2017-09-18T22:23:45.539Z,10.80
2017-09-18T22:26:13.468Z,10.80
2017-09-18T22:28:40.988Z,10.90
2017-09-18T22:31:08.524Z,10.80
2017-09-18T22:33:36.044Z,10.80
2017-09-18T22:36:03.642Z,10.90
2017-09-18T22:38:31.160Z,10.90
2017-09-18T22:40:58.695Z,10.90
2017-09-18T22:43:26.215Z,10.90
2017-09-18T22:45:53.767Z,10.90
2017-09-18T22:48:21.284Z,10.90
2017-09-18T22:50:48.808Z,10.90
2017-09-18T22:53:16.748Z,10.90
2017-09-18T22:55:44.275Z,10.90
2017-09-18T22:58:11.816Z,10.90
2017-09-18T23:00:40.386Z,10.90
2017-09-18T23:03:08.314Z,10.90
2017-09-18T23:05:35.842Z,10.90
2017-09-18T23:08:03.400Z,10.90
2017-09-18T23:10:30.915Z,10.90
2017-09-18T23:12:59.319Z,11.00
2017-09-18T23:15:26.842Z,11.00
2017-09-18T23:17:54.364Z,11.00
2017-09-18T23:20:21.899Z,11.00
2017-09-18T23:22:49.820Z,10.90
2017-09-18T23:25:17.761Z,11.00
2017-09-18T23:27:45.294Z,11.00
2017-09-18T23:30:13.228Z,10.90
2017-09-18T23:32:42.084Z,11.00
2017-09-18T23:35:10.641Z,11.00
2017-09-18T23:37:39.722Z,10.90
2017-09-18T23:40:07.247Z,11.00
2017-09-18T23:42:34.787Z,10.90
2017-09-18T23:45:02.315Z,11.00
2017-09-18T23:47:29.860Z,10.90
2017-09-18T23:49:58.039Z,10.90
2017-09-18T23:52:25.572Z,10.90
2017-09-18T23:54:53.086Z,10.90
2017-09-18T23:57:21.004Z,10.90
2017-09-18T23:59:48.524Z,10.90
